Time;durP1;ratioP1;P1;durP2;ratioP2;P2;SDS_P1;SDS_P2;PMS_P1;PMS_P2;Temp;Humidity;BMP_temperature;BMP_pressure;BME280_temperature;BME280_humidity;BME280_pressure;Samples;Min_cycle;Max_cycle;Signal;HPM_P1;HPM_P2
2024/01/11 00:01:49;;;;;;;93.38;46.58;;;;;;;;;;5073028;28;20224;-60
2024/01/11 00:04:16;;;;;;;75.05;43.78;;;;;;;;;;5072711;28;20190;-60
2024/01/11 00:06:45;;;;;;;76.38;41.15;;;;;;;;;;5072972;28;20306;-60
2024/01/11 00:09:12;;;;;;;67.68;37.92;;;;;;;;;;5072644;28;20276;-60
2024/01/11 00:11:39;;;;;;;81.15;36.97;;;;;;;;;;5072827;28;20276;-60
2024/01/11 00:14:05;;;;;;;77.63;39.78;;;;;;;;;;5072714;28;20284;-60
2024/01/11 00:16:32;;;;;;;83.90;46.22;;;;;;;;;;5072662;28;20185;-60
2024/01/11 00:19:00;;;;;;;90.65;47.58;;;;;;;;;;5072493;28;20217;-60
2024/01/11 00:21:27;;;;;;;97.60;51.45;;;;;;;;;;5072432;28;20224;-60
2024/01/11 00:23:55;;;;;;;92.88;46.85;;;;;;;;;;5072542;28;20195;-60
2024/01/11 00:26:22;;;;;;;87.65;43.72;;;;;;;;;;5072658;28;20197;-60
2024/01/11 00:28:49;;;;;;;98.25;48.22;;;;;;;;;;5072589;28;20727;-60
2024/01/11 00:31:16;;;;;;;77.82;44.47;;;;;;;;;;5072491;28;20625;-60
2024/01/11 00:33:43;;;;;;;81.60;42.70;;;;;;;;;;5072421;28;20280;-60
2024/01/11 00:36:10;;;;;;;79.28;41.70;;;;;;;;;;5072556;28;20280;-61
2024/01/11 00:38:36;;;;;;;84.78;45.30;;;;;;;;;;5072450;28;20303;-60
2024/01/11 00:41:05;;;;;;;80.75;44.45;;;;;;;;;;5072529;28;20598;-60
2024/01/11 00:43:32;;;;;;;74.78;39.70;;;;;;;;;;5072371;28;20281;-60
2024/01/11 00:45:59;;;;;;;80.43;40.70;;;;;;;;;;5072225;28;20224;-60
2024/01/11 00:48:26;;;;;;;75.57;39.10;;;;;;;;;;5072559;28;20189;-60
2024/01/11 00:50:53;;;;;;;72.90;41.40;;;;;;;;;;5072490;28;20595;-60
2024/01/11 00:53:20;;;;;;;77.80;39.22;;;;;;;;;;5072603;28;20247;-60
2024/01/11 00:55:47;;;;;;;63.22;34.95;;;;;;;;;;5072238;28;20636;-60
2024/01/11 00:58:16;;;;;;;62.08;34.25;;;;;;;;;;5071956;28;20251;-60
2024/01/11 01:00:43;;;;;;;61.28;32.85;;;;;;;;;;5071919;28;20220;-61
2024/01/11 01:03:10;;;;;;;54.90;29.80;;;;;;;;;;5071796;28;20264;-60
2024/01/11 01:05:37;;;;;;;51.28;28.15;;;;;;;;;;5072193;28;20280;-60
2024/01/11 01:08:04;;;;;;;56.28;27.23;;;;;;;;;;5072165;28;20200;-61
2024/01/11 01:10:31;;;;;;;51.88;30.80;;;;;;;;;;5072022;28;20200;-60
2024/01/11 01:12:58;;;;;;;63.17;32.47;;;;;;;;;;5071962;28;20371;-60
2024/01/11 01:15:26;;;;;;;61.53;31.35;;;;;;;;;;5072098;28;20274;-60
2024/01/11 01:17:53;;;;;;;51.75;28.80;;;;;;;;;;5072280;28;20644;-60
2024/01/11 01:20:20;;;;;;;44.83;25.17;;;;;;;;;;5071965;28;20225;-60
2024/01/11 01:22:47;;;;;;;42.10;23.02;;;;;;;;;;5072073;28;20224;-60
2024/01/11 01:25:14;;;;;;;39.63;22.58;;;;;;;;;;5072048;28;20281;-61
2024/01/11 01:27:41;;;;;;;41.95;22.85;;;;;;;;;;5071965;28;20296;-61
2024/01/11 01:30:08;;;;;;;41.85;20.75;;;;;;;;;;5072169;28;20276;-61
2024/01/11 01:32:37;;;;;;;31.67;19.13;;;;;;;;;;5072059;28;20200;-60
2024/01/11 01:35:04;;;;;;;40.58;20.48;;;;;;;;;;5071951;28;20700;-61
2024/01/11 01:37:31;;;;;;;33.95;20.20;;;;;;;;;;5075260;28;20623;-61
2024/01/11 01:39:58;;;;;;;36.78;20.08;;;;;;;;;;5075561;28;20289;-60
2024/01/11 01:42:25;;;;;;;41.80;24.67;;;;;;;;;;5075419;28;20272;-60
2024/01/11 01:44:51;;;;;;;54.72;29.25;;;;;;;;;;5075673;28;20197;-61
2024/01/11 01:47:19;;;;;;;52.83;27.60;;;;;;;;;;5075427;28;20712;-61
2024/01/11 01:49:48;;;;;;;44.85;27.15;;;;;;;;;;5075382;28;20648;-61
2024/01/11 01:52:17;;;;;;;49.53;26.17;;;;;;;;;;5075363;28;20189;-60
2024/01/11 01:54:44;;;;;;;44.28;24.73;;;;;;;;;;5075303;28;20720;-61
2024/01/11 01:57:12;;;;;;;48.55;27.00;;;;;;;;;;5075225;28;20653;-60
2024/01/11 01:59:39;;;;;;;42.13;23.55;;;;;;;;;;5075234;28;20304;-61
2024/01/11 02:02:07;;;;;;;42.03;23.58;;;;;;;;;;5075233;28;20189;-62
2024/01/11 02:04:34;;;;;;;48.58;23.83;;;;;;;;;;5075092;28;20732;-61
2024/01/11 02:07:03;;;;;;;48.67;23.30;;;;;;;;;;5074981;28;20195;-60
2024/01/11 02:09:32;;;;;;;43.13;23.52;;;;;;;;;;5074959;28;20350;-61
2024/01/11 02:11:59;;;;;;;39.28;23.58;;;;;;;;;;5075044;28;20193;-60
2024/01/11 02:14:26;;;;;;;39.40;22.08;;;;;;;;;;5074974;28;20276;-60
2024/01/11 02:16:53;;;;;;;37.78;22.55;;;;;;;;;;5074772;28;20316;-60
2024/01/11 02:19:21;;;;;;;40.20;20.38;;;;;;;;;;5074748;28;20243;-60
2024/01/11 02:21:50;;;;;;;36.78;21.13;;;;;;;;;;5074517;28;20779;-60
2024/01/11 02:24:18;;;;;;;36.92;20.92;;;;;;;;;;5074903;28;20277;-60
2024/01/11 02:26:59;;;;;;;36.22;20.83;;;;;;;;;;5074876;28;20196;-60
2024/01/11 02:29:26;;;;;;;36.45;19.20;;;;;;;;;;5075093;28;20549;-60
2024/01/11 02:31:53;;;;;;;31.65;18.23;;;;;;;;;;5074603;28;20189;-60
2024/01/11 02:34:20;;;;;;;25.33;16.27;;;;;;;;;;5074473;28;20197;-60
2024/01/11 02:36:47;;;;;;;25.52;15.23;;;;;;;;;;5074698;28;20284;-60
2024/01/11 02:39:15;;;;;;;21.85;13.98;;;;;;;;;;5074606;28;20673;-60
2024/01/11 02:41:43;;;;;;;26.25;14.10;;;;;;;;;;5074561;28;20243;-61
2024/01/11 02:44:10;;;;;;;22.35;13.75;;;;;;;;;;5074445;28;20189;-60
2024/01/11 02:46:37;;;;;;;21.13;12.57;;;;;;;;;;5074279;28;20202;-60
2024/01/11 02:49:04;;;;;;;18.70;11.93;;;;;;;;;;5073657;28;20192;-60
2024/01/11 02:51:31;;;;;;;15.50;8.75;;;;;;;;;;5074433;28;20274;-60
2024/01/11 02:53:58;;;;;;;13.45;9.25;;;;;;;;;;5074249;28;20189;-60
2024/01/11 02:56:25;;;;;;;17.50;8.75;;;;;;;;;;5074269;28;20636;-60
2024/01/11 02:58:53;;;;;;;15.48;9.70;;;;;;;;;;5074003;28;20224;-60
2024/01/11 03:01:20;;;;;;;13.98;9.23;;;;;;;;;;5073965;28;20185;-60
2024/01/11 03:03:47;;;;;;;17.15;9.80;;;;;;;;;;5074252;28;20185;-60
2024/01/11 03:06:14;;;;;;;10.80;7.68;;;;;;;;;;5074201;28;20189;-60
2024/01/11 03:08:41;;;;;;;12.00;6.28;;;;;;;;;;5074212;28;20196;-60
2024/01/11 03:11:08;;;;;;;9.73;6.38;;;;;;;;;;5073952;28;20276;-60
2024/01/11 03:13:35;;;;;;;11.38;6.93;;;;;;;;;;5074002;28;20246;-60
2024/01/11 03:16:04;;;;;;;11.70;7.30;;;;;;;;;;5073670;28;20189;-60
2024/01/11 03:18:31;;;;;;;10.93;6.40;;;;;;;;;;5073936;28;20559;-60
2024/01/11 03:20:58;;;;;;;9.23;6.25;;;;;;;;;;5073530;28;20588;-60
2024/01/11 03:23:25;;;;;;;11.63;7.03;;;;;;;;;;5073693;28;20189;-60
2024/01/11 03:25:51;;;;;;;14.00;8.27;;;;;;;;;;5073645;28;20223;-60
2024/01/11 03:28:19;;;;;;;11.43;7.20;;;;;;;;;;5073482;28;20623;-60
2024/01/11 03:30:46;;;;;;;10.20;6.88;;;;;;;;;;5073422;28;20280;-60
2024/01/11 03:33:14;;;;;;;13.48;7.07;;;;;;;;;;5073517;28;20276;-60
2024/01/11 03:35:43;;;;;;;12.48;6.88;;;;;;;;;;5073507;28;20193;-60
2024/01/11 03:38:10;;;;;;;9.38;5.95;;;;;;;;;;5073354;28;20232;-60
2024/01/11 03:40:38;;;;;;;12.73;7.13;;;;;;;;;;5073229;28;20246;-60
2024/01/11 03:43:05;;;;;;;11.07;6.97;;;;;;;;;;5073222;28;20544;-60
2024/01/11 03:45:31;;;;;;;12.80;7.40;;;;;;;;;;5073342;28;20643;-61
2024/01/11 03:47:58;;;;;;;11.10;6.85;;;;;;;;;;5073090;28;20637;-61
2024/01/11 03:50:26;;;;;;;12.27;7.13;;;;;;;;;;5073197;28;20216;-61
2024/01/11 03:52:53;;;;;;;13.23;6.68;;;;;;;;;;5073175;28;20280;-61
2024/01/11 03:55:20;;;;;;;15.75;6.82;;;;;;;;;;5072995;28;20296;-60
2024/01/11 03:57:47;;;;;;;9.23;6.40;;;;;;;;;;5072864;28;20632;-61
2024/01/11 04:00:15;;;;;;;12.50;7.88;;;;;;;;;;5071932;28;20680;-61
2024/01/11 04:02:42;;;;;;;10.80;6.70;;;;;;;;;;5072973;28;20189;-61
2024/01/11 04:05:09;;;;;;;13.75;7.40;;;;;;;;;;5072975;28;20296;-61
2024/01/11 04:07:37;;;;;;;13.50;8.20;;;;;;;;;;5072839;28;20194;-61
2024/01/11 04:10:04;;;;;;;12.82;8.30;;;;;;;;;;5072763;28;20280;-61
2024/01/11 04:12:31;;;;;;;15.27;7.25;;;;;;;;;;5072904;28;20200;-60
2024/01/11 04:14:58;;;;;;;14.55;6.78;;;;;;;;;;5072890;28;20247;-60
2024/01/11 04:17:25;;;;;;;14.27;7.20;;;;;;;;;;5072806;28;20493;-61
2024/01/11 04:19:52;;;;;;;14.13;8.18;;;;;;;;;;5072450;28;20221;-61
2024/01/11 04:22:19;;;;;;;11.55;8.13;;;;;;;;;;5072527;28;20278;-60
2024/01/11 04:24:47;;;;;;;18.13;8.30;;;;;;;;;;5072569;28;20189;-61
2024/01/11 04:27:14;;;;;;;13.10;7.38;;;;;;;;;;5072532;28;20186;-60
2024/01/11 04:29:41;;;;;;;10.73;7.63;;;;;;;;;;5072670;28;20232;-60
2024/01/11 04:32:08;;;;;;;13.80;7.70;;;;;;;;;;5072613;28;20280;-61
2024/01/11 04:34:35;;;;;;;14.20;8.90;;;;;;;;;;5072526;28;20186;-61
2024/01/11 04:37:02;;;;;;;12.02;7.93;;;;;;;;;;5072535;28;20280;-61
2024/01/11 04:39:29;;;;;;;17.33;8.65;;;;;;;;;;5072221;28;20311;-61
2024/01/11 04:41:57;;;;;;;18.98;7.95;;;;;;;;;;5072561;28;20280;-61
2024/01/11 04:44:24;;;;;;;14.15;8.00;;;;;;;;;;5072474;28;20189;-60
2024/01/11 04:46:51;;;;;;;14.75;8.88;;;;;;;;;;5072338;28;20229;-60
2024/01/11 04:49:18;;;;;;;15.75;9.57;;;;;;;;;;5072296;28;20280;-61
2024/01/11 04:51:45;;;;;;;18.73;8.75;;;;;;;;;;5072347;28;20324;-61
2024/01/11 04:54:12;;;;;;;11.75;7.47;;;;;;;;;;5072446;28;20186;-61
2024/01/11 04:56:39;;;;;;;15.05;7.97;;;;;;;;;;5072522;28;20620;-61
2024/01/11 04:59:07;;;;;;;9.23;7.22;;;;;;;;;;5072335;28;20643;-63
2024/01/11 05:01:34;;;;;;;13.18;6.85;;;;;;;;;;5072350;28;20280;-61
2024/01/11 05:04:01;;;;;;;12.75;7.63;;;;;;;;;;5072325;28;20199;-60
2024/01/11 05:06:29;;;;;;;13.30;7.43;;;;;;;;;;5072131;28;20217;-61
2024/01/11 05:08:56;;;;;;;13.65;6.72;;;;;;;;;;5072329;28;20197;-61
2024/01/11 05:11:24;;;;;;;16.20;6.90;;;;;;;;;;5074154;28;20615;-61
2024/01/11 05:13:51;;;;;;;12.65;7.28;;;;;;;;;;5076146;28;20189;-61
2024/01/11 05:16:22;;;;;;;13.45;6.90;;;;;;;;;;5076068;28;20221;-61
2024/01/11 05:18:49;;;;;;;17.10;8.05;;;;;;;;;;5075924;28;20308;-61
2024/01/11 05:21:16;;;;;;;18.63;8.80;;;;;;;;;;5075984;28;20223;-61
2024/01/11 05:23:43;;;;;;;16.63;7.82;;;;;;;;;;5076034;28;20213;-61
2024/01/11 05:26:10;;;;;;;12.25;7.70;;;;;;;;;;5075740;28;20727;-61
2024/01/11 05:28:38;;;;;;;16.23;8.60;;;;;;;;;;5075837;28;20225;-61
2024/01/11 05:31:07;;;;;;;14.10;7.63;;;;;;;;;;5075659;28;20228;-61
2024/01/11 05:33:35;;;;;;;17.08;9.77;;;;;;;;;;5075861;28;20196;-61
2024/01/11 05:36:02;;;;;;;18.05;8.48;;;;;;;;;;5075742;28;20355;-61
2024/01/11 05:38:29;;;;;;;17.25;9.32;;;;;;;;;;5075682;28;20280;-61
2024/01/11 05:40:56;;;;;;;30.00;15.20;;;;;;;;;;5075563;28;20185;-62
2024/01/11 05:43:23;;;;;;;19.40;9.43;;;;;;;;;;5075620;28;20232;-61
2024/01/11 05:45:50;;;;;;;22.10;10.18;;;;;;;;;;5075255;28;20584;-61
2024/01/11 05:48:18;;;;;;;18.58;9.32;;;;;;;;;;5075328;28;20259;-61
2024/01/11 05:50:46;;;;;;;18.38;9.07;;;;;;;;;;5075373;28;20645;-61
2024/01/11 05:53:13;;;;;;;18.08;9.20;;;;;;;;;;5075438;28;20615;-61
2024/01/11 05:55:40;;;;;;;17.00;8.98;;;;;;;;;;5075179;28;20735;-61
2024/01/11 05:58:07;;;;;;;23.42;10.20;;;;;;;;;;5075244;28;20186;-61
2024/01/11 06:00:34;;;;;;;23.45;11.07;;;;;;;;;;5075039;28;20217;-61
2024/01/11 06:03:01;;;;;;;21.23;9.70;;;;;;;;;;5075305;28;20279;-61
2024/01/11 06:05:28;;;;;;;22.83;9.32;;;;;;;;;;5075247;28;20193;-61
2024/01/11 06:07:56;;;;;;;23.77;9.32;;;;;;;;;;5075449;28;20189;-61
2024/01/11 06:10:23;;;;;;;19.95;9.70;;;;;;;;;;5075099;28;20239;-61
2024/01/11 06:12:50;;;;;;;21.73;9.40;;;;;;;;;;5074932;28;20194;-61
2024/01/11 06:15:17;;;;;;;21.17;8.77;;;;;;;;;;5074885;28;20280;-61
2024/01/11 06:17:44;;;;;;;21.15;11.70;;;;;;;;;;5074952;28;20215;-61
2024/01/11 06:20:12;;;;;;;25.33;9.65;;;;;;;;;;5074622;28;20312;-61
2024/01/11 06:22:39;;;;;;;23.10;9.45;;;;;;;;;;5073892;28;20276;-61
2024/01/11 06:25:07;;;;;;;18.35;9.38;;;;;;;;;;5075166;28;20284;-61
2024/01/11 06:27:34;;;;;;;22.75;9.50;;;;;;;;;;5074716;28;20262;-62
2024/01/11 06:30:01;;;;;;;25.85;10.40;;;;;;;;;;5074759;28;20704;-61
2024/01/11 06:32:28;;;;;;;25.80;9.43;;;;;;;;;;5074585;28;20195;-61
2024/01/11 06:34:55;;;;;;;23.05;10.23;;;;;;;;;;5074501;28;20280;-61
2024/01/11 06:37:22;;;;;;;19.27;9.48;;;;;;;;;;5074585;28;20231;-61
2024/01/11 06:39:49;;;;;;;19.15;9.75;;;;;;;;;;5074272;28;20576;-61
2024/01/11 06:42:17;;;;;;;19.42;8.35;;;;;;;;;;5073952;28;20667;-61
2024/01/11 06:44:44;;;;;;;21.20;10.85;;;;;;;;;;5074367;28;20281;-61
2024/01/11 06:47:11;;;;;;;27.35;10.32;;;;;;;;;;5074409;28;20191;-61
2024/01/11 06:49:40;;;;;;;24.30;9.65;;;;;;;;;;5074269;28;20220;-61
2024/01/11 06:52:07;;;;;;;20.88;10.88;;;;;;;;;;5074086;28;20200;-61
2024/01/11 06:54:34;;;;;;;23.50;9.10;;;;;;;;;;5074047;28;20272;-61
2024/01/11 06:57:01;;;;;;;22.48;10.52;;;;;;;;;;5074013;28;20697;-61
2024/01/11 06:59:29;;;;;;;22.52;9.27;;;;;;;;;;5074198;28;20639;-61
2024/01/11 07:01:56;;;;;;;23.92;10.07;;;;;;;;;;5074013;28;20280;-62
2024/01/11 07:04:23;;;;;;;17.27;9.57;;;;;;;;;;5073969;28;20280;-62
2024/01/11 07:06:50;;;;;;;20.25;9.05;;;;;;;;;;5073964;28;20189;-62
2024/01/11 07:09:17;;;;;;;19.77;9.18;;;;;;;;;;5073744;28;20284;-61
2024/01/11 07:11:44;;;;;;;19.95;9.70;;;;;;;;;;5074067;28;20502;-61
2024/01/11 07:14:11;;;;;;;22.13;11.00;;;;;;;;;;5073687;28;20616;-61
2024/01/11 07:16:39;;;;;;;19.63;10.35;;;;;;;;;;5073763;28;20623;-62
2024/01/11 07:19:06;;;;;;;20.48;9.60;;;;;;;;;;5073647;28;20220;-61
2024/01/11 07:21:33;;;;;;;21.38;10.40;;;;;;;;;;5073725;28;20629;-61
2024/01/11 07:24:00;;;;;;;25.42;10.70;;;;;;;;;;5073503;28;20190;-61
2024/01/11 07:26:27;;;;;;;18.90;9.60;;;;;;;;;;5073367;28;20662;-61
2024/01/11 07:28:55;;;;;;;21.52;10.75;;;;;;;;;;5073474;28;20275;-61
2024/01/11 07:31:22;;;;;;;20.02;10.45;;;;;;;;;;5073623;28;20193;-61
2024/01/11 07:33:51;;;;;;;25.80;10.82;;;;;;;;;;5073254;28;20189;-61
2024/01/11 07:36:18;;;;;;;22.00;11.32;;;;;;;;;;5073027;28;20190;-61
2024/01/11 07:38:45;;;;;;;22.40;11.02;;;;;;;;;;5073187;28;20193;-61
2024/01/11 07:41:12;;;;;;;25.48;10.82;;;;;;;;;;5073285;28;20217;-61
2024/01/11 07:43:39;;;;;;;26.08;11.68;;;;;;;;;;5073242;28;20193;-61
2024/01/11 07:46:07;;;;;;;20.88;11.55;;;;;;;;;;5073153;28;20194;-61
2024/01/11 07:48:34;;;;;;;27.73;11.60;;;;;;;;;;5073048;28;20189;-61
2024/01/11 07:51:04;;;;;;;23.83;11.55;;;;;;;;;;5072969;28;20201;-61
2024/01/11 07:53:32;;;;;;;25.48;12.70;;;;;;;;;;5073125;28;20499;-61
2024/01/11 07:55:59;;;;;;;26.60;11.18;;;;;;;;;;5072861;28;20193;-61
2024/01/11 07:58:26;;;;;;;24.15;12.63;;;;;;;;;;5073092;28;20194;-61
2024/01/11 08:00:54;;;;;;;28.98;12.63;;;;;;;;;;5072804;28;20221;-61
2024/01/11 08:03:21;;;;;;;24.50;10.85;;;;;;;;;;5072748;28;20200;-61
2024/01/11 08:05:50;;;;;;;28.25;12.75;;;;;;;;;;5072964;28;20275;-61
2024/01/11 08:08:18;;;;;;;23.75;11.98;;;;;;;;;;5072743;28;20193;-61
2024/01/11 08:10:45;;;;;;;25.35;11.77;;;;;;;;;;5072568;28;20221;-61
2024/01/11 08:13:13;;;;;;;24.70;11.52;;;;;;;;;;5072690;28;20189;-61
2024/01/11 08:15:40;;;;;;;27.00;11.02;;;;;;;;;;5072410;28;20196;-61
2024/01/11 08:18:07;;;;;;;26.17;11.50;;;;;;;;;;5072339;28;20185;-62
2024/01/11 08:20:34;;;;;;;33.28;11.75;;;;;;;;;;5072249;28;20228;-62
2024/01/11 08:23:01;;;;;;;29.17;11.00;;;;;;;;;;5072745;28;20228;-62
2024/01/11 08:25:29;;;;;;;28.15;11.32;;;;;;;;;;5072275;28;20736;-62
2024/01/11 08:27:56;;;;;;;25.58;10.48;;;;;;;;;;5072362;28;20645;-62
2024/01/11 08:30:23;;;;;;;27.77;12.05;;;;;;;;;;5072614;28;20197;-60
2024/01/11 08:32:50;;;;;;;28.77;11.90;;;;;;;;;;5067768;28;20234;-64
2024/01/11 08:35:17;;;;;;;25.92;12.70;;;;;;;;;;5072325;28;20229;-65
2024/01/11 08:37:44;;;;;;;29.63;14.10;;;;;;;;;;5072496;28;20271;-62
2024/01/11 08:40:11;;;;;;;34.05;16.23;;;;;;;;;;5071913;28;20211;-61
2024/01/11 08:42:41;;;;;;;35.75;16.42;;;;;;;;;;5072666;28;20563;-60
2024/01/11 08:45:08;;;;;;;29.77;15.15;;;;;;;;;;5071664;28;20190;-61
2024/01/11 08:47:35;;;;;;;33.63;17.75;;;;;;;;;;5072297;28;20193;-61
2024/01/11 08:50:05;;;;;;;37.90;19.30;;;;;;;;;;5072378;28;20193;-62
2024/01/11 08:52:32;;;;;;;34.67;16.17;;;;;;;;;;5072447;28;20197;-62
2024/01/11 08:54:59;;;;;;;30.67;16.63;;;;;;;;;;5072243;28;20247;-61
2024/01/11 08:57:27;;;;;;;28.95;15.32;;;;;;;;;;5072345;28;20279;-61
2024/01/11 08:59:55;;;;;;;29.92;14.55;;;;;;;;;;5072080;28;20252;-60
2024/01/11 09:02:22;;;;;;;35.55;14.57;;;;;;;;;;5072136;28;20189;-62
2024/01/11 09:04:49;;;;;;;29.38;13.95;;;;;;;;;;5072188;28;20185;-60
2024/01/11 09:07:16;;;;;;;35.00;13.95;;;;;;;;;;5072091;28;20276;-62
2024/01/11 09:09:43;;;;;;;36.35;14.82;;;;;;;;;;5071982;28;20679;-61
2024/01/11 09:12:10;;;;;;;29.27;13.35;;;;;;;;;;5071961;28;20742;-59
2024/01/11 09:14:39;;;;;;;29.45;13.70;;;;;;;;;;5072195;28;20599;-61
2024/01/11 09:17:08;;;;;;;30.50;13.63;;;;;;;;;;5072324;28;20189;-61
2024/01/11 09:19:35;;;;;;;36.67;16.55;;;;;;;;;;5071880;28;20196;-61
2024/01/11 09:22:02;;;;;;;30.20;14.70;;;;;;;;;;5071661;28;20558;-61
2024/01/11 09:24:29;;;;;;;26.13;12.82;;;;;;;;;;5072019;28;20196;-61
2024/01/11 09:26:56;;;;;;;29.65;14.73;;;;;;;;;;5072062;28;20216;-59
2024/01/11 09:29:23;;;;;;;28.98;14.75;;;;;;;;;;5071028;28;20203;-60
2024/01/11 09:31:50;;;;;;;33.42;14.85;;;;;;;;;;5071613;28;20272;-60
2024/01/11 09:34:18;;;;;;;26.70;12.25;;;;;;;;;;5071737;28;20208;-60
2024/01/11 09:36:45;;;;;;;29.52;12.27;;;;;;;;;;5071904;28;20280;-60
2024/01/11 09:39:13;;;;;;;34.30;16.85;;;;;;;;;;5071740;28;20189;-61
2024/01/11 09:41:43;;;;;;;46.90;21.48;;;;;;;;;;5071769;28;20317;-61
2024/01/11 09:44:11;;;;;;;36.80;14.65;;;;;;;;;;5072255;28;20189;-61
2024/01/11 09:46:38;;;;;;;30.20;15.68;;;;;;;;;;5071900;28;20185;-61
2024/01/11 09:49:05;;;;;;;29.77;15.13;;;;;;;;;;5071755;28;20590;-62
2024/01/11 09:51:35;;;;;;;24.23;12.23;;;;;;;;;;5071771;28;20225;-64
2024/01/11 09:54:02;;;;;;;27.70;12.20;;;;;;;;;;5071964;28;20301;-64
2024/01/11 09:56:29;;;;;;;25.70;12.38;;;;;;;;;;5072265;28;20212;-61
2024/01/11 09:58:56;;;;;;;22.42;11.48;;;;;;;;;;5074385;28;20276;-61
2024/01/11 10:01:23;;;;;;;29.67;12.90;;;;;;;;;;5075320;28;20221;-66
2024/01/11 10:03:51;;;;;;;25.42;13.65;;;;;;;;;;5075060;28;20276;-62
2024/01/11 10:06:19;;;;;;;29.50;13.00;;;;;;;;;;5075323;28;20522;-65
2024/01/11 10:08:48;;;;;;;33.67;13.90;;;;;;;;;;5075332;28;20197;-65
2024/01/11 10:11:15;;;;;;;25.70;12.02;;;;;;;;;;5075157;28;20258;-65
2024/01/11 10:13:42;;;;;;;29.80;13.80;;;;;;;;;;5074612;28;20271;-65
2024/01/11 10:16:10;;;;;;;30.20;13.25;;;;;;;;;;5075099;28;20228;-62
2024/01/11 10:18:38;;;;;;;25.98;11.82;;;;;;;;;;5075000;28;20186;-61
2024/01/11 10:21:05;;;;;;;30.23;14.82;;;;;;;;;;5074781;28;20229;-60
2024/01/11 10:23:34;;;;;;;27.67;13.43;;;;;;;;;;5074911;28;20197;-63
2024/01/11 10:26:03;;;;;;;31.27;13.82;;;;;;;;;;5075039;28;20469;-62
2024/01/11 10:28:30;;;;;;;23.40;12.00;;;;;;;;;;5074672;28;20653;-58
2024/01/11 10:30:56;;;;;;;27.65;12.40;;;;;;;;;;5074239;28;20276;-62
2024/01/11 10:33:24;;;;;;;27.85;14.70;;;;;;;;;;5074664;28;20224;-64
2024/01/11 10:35:51;;;;;;;30.25;14.40;;;;;;;;;;5074250;28;20801;-63
2024/01/11 10:38:18;;;;;;;23.00;13.18;;;;;;;;;;5074548;28;20272;-66
2024/01/11 10:40:45;;;;;;;22.92;12.55;;;;;;;;;;5074589;28;20714;-61
2024/01/11 10:43:16;;;;;;;32.83;15.43;;;;;;;;;;5074446;28;20204;-61
2024/01/11 10:45:44;;;;;;;31.10;14.98;;;;;;;;;;5076009;28;20185;-63
2024/01/11 10:48:14;;;;;;;37.75;14.55;;;;;;;;;;5078719;28;20267;-64
2024/01/11 10:50:43;;;;;;;31.60;14.05;;;;;;;;;;5076168;28;20288;-63
2024/01/11 10:53:14;;;;;;;28.15;14.52;;;;;;;;;;5087282;28;20181;-63
2024/01/11 10:55:43;;;;;;;28.98;13.50;;;;;;;;;;5083767;28;20196;-63
2024/01/11 10:58:11;;;;;;;32.08;14.77;;;;;;;;;;5090839;28;20223;-60
2024/01/11 11:00:39;;;;;;;31.63;14.80;;;;;;;;;;5089196;28;20399;-60
2024/01/11 11:03:07;;;;;;;27.52;13.10;;;;;;;;;;5073737;28;20644;-62
2024/01/11 11:05:36;;;;;;;32.13;15.30;;;;;;;;;;5074211;28;20200;-64
2024/01/11 11:08:03;;;;;;;34.92;15.82;;;;;;;;;;5084116;28;20189;-61
2024/01/11 11:10:31;;;;;;;30.17;16.20;;;;;;;;;;5091292;28;20185;-60
2024/01/11 11:12:59;;;;;;;24.08;13.20;;;;;;;;;;5091688;28;20271;-63
2024/01/11 11:15:28;;;;;;;33.05;14.30;;;;;;;;;;5094070;28;20185;-62
2024/01/11 11:17:56;;;;;;;32.58;16.63;;;;;;;;;;5094187;28;20607;-61
2024/01/11 11:20:23;;;;;;;32.53;14.88;;;;;;;;;;5093752;28;20307;-62
2024/01/11 11:23:04;;;;;;;40.10;15.02;;;;;;;;;;5093911;28;20291;-61
2024/01/11 11:25:31;;;;;;;31.58;13.88;;;;;;;;;;5093641;28;20188;-62
2024/01/11 11:28:00;;;;;;;33.42;15.80;;;;;;;;;;5093978;28;20199;-61
2024/01/11 11:30:27;;;;;;;34.55;15.43;;;;;;;;;;5094038;28;20590;-64
2024/01/11 11:32:56;;;;;;;31.67;14.77;;;;;;;;;;5093448;28;20284;-61
2024/01/11 11:35:25;;;;;;;33.70;15.88;;;;;;;;;;5093593;28;20260;-62
2024/01/11 11:37:57;;;;;;;36.40;16.27;;;;;;;;;;5093566;28;20597;-62
2024/01/11 11:40:33;;;;;;;34.77;16.17;;;;;;;;;;5093562;28;20193;-62
2024/01/11 11:43:03;;;;;;;40.60;17.20;;;;;;;;;;5081110;28;20181;-61
2024/01/11 11:45:32;;;;;;;33.47;15.73;;;;;;;;;;5073256;28;20232;-62
2024/01/11 11:47:59;;;;;;;30.70;15.85;;;;;;;;;;5073060;28;20189;-62
2024/01/11 11:50:27;;;;;;;37.50;15.98;;;;;;;;;;5073140;28;20272;-61
2024/01/11 11:52:56;;;;;;;37.67;17.35;;;;;;;;;;5073178;28;20281;-60
2024/01/11 11:55:24;;;;;;;38.05;16.88;;;;;;;;;;5073038;28;20196;-60
2024/01/11 11:57:52;;;;;;;33.38;15.70;;;;;;;;;;5073028;28;20193;-62
2024/01/11 12:00:19;;;;;;;27.27;13.85;;;;;;;;;;5072836;28;20193;-63
2024/01/11 12:02:47;;;;;;;34.47;16.92;;;;;;;;;;5072725;28;20225;-63
2024/01/11 12:05:14;;;;;;;38.88;16.60;;;;;;;;;;5072700;28;20296;-62
2024/01/11 12:07:43;;;;;;;34.65;17.00;;;;;;;;;;5073011;28;20186;-64
2024/01/11 12:10:10;;;;;;;36.25;17.42;;;;;;;;;;5072900;28;20203;-65
2024/01/11 12:12:37;;;;;;;40.08;16.92;;;;;;;;;;5072672;28;20275;-63
2024/01/11 12:15:04;;;;;;;32.17;16.08;;;;;;;;;;5072627;28;20682;-64
2024/01/11 12:17:31;;;;;;;37.33;17.30;;;;;;;;;;5072485;28;20627;-64
2024/01/11 12:19:58;;;;;;;41.05;18.20;;;;;;;;;;5071687;28;20189;-70
2024/01/11 12:22:25;;;;;;;39.75;20.02;;;;;;;;;;5072004;28;20458;-65
2024/01/11 12:24:54;;;;;;;42.15;18.70;;;;;;;;;;5072678;28;20279;-63
2024/01/11 12:27:21;;;;;;;37.75;16.67;;;;;;;;;;5072601;28;20196;-63
2024/01/11 12:29:48;;;;;;;47.10;19.58;;;;;;;;;;5072470;28;20935;-64
2024/01/11 12:32:16;;;;;;;39.72;18.58;;;;;;;;;;5072345;28;20625;-64
2024/01/11 12:34:44;;;;;;;35.08;17.80;;;;;;;;;;5072480;28;20193;-61
2024/01/11 12:37:11;;;;;;;39.80;18.55;;;;;;;;;;5072584;28;20759;-63
2024/01/11 12:39:39;;;;;;;46.38;19.30;;;;;;;;;;5072318;28;20637;-63
2024/01/11 12:42:09;;;;;;;40.65;17.42;;;;;;;;;;5072245;28;20217;-63
2024/01/11 12:44:37;;;;;;;41.58;17.70;;;;;;;;;;5072231;28;20189;-63
2024/01/11 12:47:05;;;;;;;38.50;19.42;;;;;;;;;;5072547;28;20228;-64
2024/01/11 12:49:32;;;;;;;42.20;18.80;;;;;;;;;;5072379;28;20277;-67
2024/01/11 12:51:59;;;;;;;36.22;17.25;;;;;;;;;;5072393;28;20279;-67
2024/01/11 12:54:26;;;;;;;37.42;17.75;;;;;;;;;;5072349;28;20256;-65
2024/01/11 12:56:53;;;;;;;41.17;19.52;;;;;;;;;;5072240;28;20680;-72
2024/01/11 12:59:26;;;;;;;39.47;17.35;;;;;;;;;;5072201;28;20287;-63
2024/01/11 13:01:54;;;;;;;46.17;21.00;;;;;;;;;;5072098;28;20308;-64
2024/01/11 13:04:21;;;;;;;38.60;17.80;;;;;;;;;;5072385;28;20201;-63
2024/01/11 13:06:48;;;;;;;36.90;17.70;;;;;;;;;;5072291;28;20623;-62
2024/01/11 13:09:15;;;;;;;32.67;16.73;;;;;;;;;;5072002;28;20185;-64
2024/01/11 13:11:42;;;;;;;39.17;19.80;;;;;;;;;;5071900;28;20280;-62
2024/01/11 13:14:14;;;;;;;45.78;18.17;;;;;;;;;;5072339;28;20494;-63
2024/01/11 13:16:43;;;;;;;41.58;18.80;;;;;;;;;;5072232;28;20193;-65
2024/01/11 13:19:10;;;;;;;38.92;16.98;;;;;;;;;;5072092;28;20221;-64
2024/01/11 13:21:37;;;;;;;39.20;19.63;;;;;;;;;;5072076;28;20420;-63
2024/01/11 13:24:05;;;;;;;39.40;17.60;;;;;;;;;;5071938;28;20228;-65
2024/01/11 13:26:32;;;;;;;40.90;19.73;;;;;;;;;;5071800;28;20197;-64
2024/01/11 13:28:59;;;;;;;56.30;33.17;;;;;;;;;;5072124;28;20729;-65
2024/01/11 13:31:26;;;;;;;50.78;29.90;;;;;;;;;;5072199;28;20601;-65
2024/01/11 13:33:55;;;;;;;42.22;19.75;;;;;;;;;;5075814;28;20190;-63
2024/01/11 13:36:22;;;;;;;33.22;18.15;;;;;;;;;;5075646;28;20607;-62
2024/01/11 13:38:49;;;;;;;35.33;17.95;;;;;;;;;;5075735;28;20621;-63
2024/01/11 13:41:17;;;;;;;37.17;17.33;;;;;;;;;;5075400;28;20200;-63
2024/01/11 13:43:44;;;;;;;35.88;17.08;;;;;;;;;;5075859;28;20217;-63
2024/01/11 13:46:11;;;;;;;47.15;19.67;;;;;;;;;;5075615;28;20189;-65
2024/01/11 13:48:38;;;;;;;38.47;17.17;;;;;;;;;;5075473;28;20189;-63
2024/01/11 13:51:08;;;;;;;33.53;15.63;;;;;;;;;;5075491;28;20272;-64
2024/01/11 13:53:35;;;;;;;37.20;18.55;;;;;;;;;;5075500;28;20235;-65
2024/01/11 13:56:02;;;;;;;33.38;17.73;;;;;;;;;;5075674;28;20189;-65
2024/01/11 13:58:30;;;;;;;29.23;14.93;;;;;;;;;;5074992;28;20356;-64
2024/01/11 14:00:57;;;;;;;33.15;16.17;;;;;;;;;;5074968;28;20672;-65
2024/01/11 14:03:24;;;;;;;31.08;15.05;;;;;;;;;;5075179;28;20213;-64
2024/01/11 14:05:51;;;;;;;35.20;16.67;;;;;;;;;;5075378;28;20189;-65
2024/01/11 14:08:19;;;;;;;37.05;18.35;;;;;;;;;;5075383;28;20195;-65
2024/01/11 14:10:47;;;;;;;31.25;15.95;;;;;;;;;;5075383;28;20189;-65
2024/01/11 14:13:14;;;;;;;35.67;16.35;;;;;;;;;;5075256;28;20276;-65
2024/01/11 14:15:41;;;;;;;35.25;16.90;;;;;;;;;;5074958;28;20194;-65
2024/01/11 14:18:09;;;;;;;30.00;15.32;;;;;;;;;;5075054;28;20242;-65
2024/01/11 14:20:36;;;;;;;32.33;17.38;;;;;;;;;;5074664;28;20275;-65
2024/01/11 14:23:03;;;;;;;37.25;16.20;;;;;;;;;;5075146;28;20217;-65